sensor_id;sensor_type;location;lat;lon;timestamp;P1;durP1;ratioP1;P2;durP2;ratioP2
25990;SDS011;13779;-33.886;151.198;2023-12-20T00:01:05;15.52;;;2.88;;
25990;SDS011;13779;-33.886;151.198;2023-12-20T00:03:35;12.47;;;1.90;;
25990;SDS011;13779;-33.886;151.198;2023-12-20T00:06:07;15.00;;;2.40;;
25990;SDS011;13779;-33.886;151.198;2023-12-20T00:11:08;16.00;;;3.00;;
25990;SDS011;13779;-33.886;151.198;2023-12-20T00:13:38;12.50;;;2.13;;
25990;SDS011;13779;-33.886;151.198;2023-12-20T00:18:39;11.35;;;1.70;;
25990;SDS011;13779;-33.886;151.198;2023-12-20T00:21:11;10.43;;;2.10;;
25990;SDS011;13779;-33.886;151.198;2023-12-20T00:23:41;9.65;;;2.17;;
25990;SDS011;13779;-33.886;151.198;2023-12-20T00:26:12;12.25;;;2.50;;
25990;SDS011;13779;-33.886;151.198;2023-12-20T00:28:42;14.98;;;2.47;;
25990;SDS011;13779;-33.886;151.198;2023-12-20T00:31:13;13.02;;;2.75;;
25990;SDS011;13779;-33.886;151.198;2023-12-20T00:33:44;10.13;;;2.00;;
25990;SDS011;13779;-33.886;151.198;2023-12-20T00:36:16;14.68;;;2.10;;
25990;SDS011;13779;-33.886;151.198;2023-12-20T00:38:47;9.05;;;2.15;;
25990;SDS011;13779;-33.886;151.198;2023-12-20T00:41:18;9.10;;;1.67;;
25990;SDS011;13779;-33.886;151.198;2023-12-20T00:43:49;11.75;;;2.67;;
25990;SDS011;13779;-33.886;151.198;2023-12-20T00:46:20;12.73;;;1.85;;
25990;SDS011;13779;-33.886;151.198;2023-12-20T00:48:50;18.20;;;2.67;;
25990;SDS011;13779;-33.886;151.198;2023-12-20T00:51:21;19.25;;;3.97;;
25990;SDS011;13779;-33.886;151.198;2023-12-20T00:56:23;12.32;;;2.03;;
25990;SDS011;13779;-33.886;151.198;2023-12-20T00:58:54;10.32;;;1.98;;
25990;SDS011;13779;-33.886;151.198;2023-12-20T01:01:24;15.40;;;2.13;;
25990;SDS011;13779;-33.886;151.198;2023-12-20T01:03:56;7.50;;;1.98;;
25990;SDS011;13779;-33.886;151.198;2023-12-20T01:06:26;14.45;;;2.83;;
25990;SDS011;13779;-33.886;151.198;2023-12-20T01:11:29;13.07;;;2.23;;
25990;SDS011;13779;-33.886;151.198;2023-12-20T01:13:59;8.40;;;1.67;;
25990;SDS011;13779;-33.886;151.198;2023-12-20T01:16:30;15.07;;;2.10;;
25990;SDS011;13779;-33.886;151.198;2023-12-20T01:19:01;7.93;;;2.13;;
25990;SDS011;13779;-33.886;151.198;2023-12-20T01:24:01;7.80;;;1.70;;
25990;SDS011;13779;-33.886;151.198;2023-12-20T01:26:32;6.63;;;1.70;;
25990;SDS011;13779;-33.886;151.198;2023-12-20T01:29:02;10.60;;;2.10;;
25990;SDS011;13779;-33.886;151.198;2023-12-20T01:31:32;6.65;;;1.52;;
25990;SDS011;13779;-33.886;151.198;2023-12-20T01:34:02;6.45;;;2.03;;
25990;SDS011;13779;-33.886;151.198;2023-12-20T01:36:33;9.63;;;1.75;;
25990;SDS011;13779;-33.886;151.198;2023-12-20T01:39:03;9.13;;;2.15;;
25990;SDS011;13779;-33.886;151.198;2023-12-20T01:41:39;8.75;;;1.95;;
25990;SDS011;13779;-33.886;151.198;2023-12-20T01:44:09;7.45;;;1.55;;
25990;SDS011;13779;-33.886;151.198;2023-12-20T01:46:39;12.88;;;1.60;;
25990;SDS011;13779;-33.886;151.198;2023-12-20T01:49:09;10.70;;;1.93;;
25990;SDS011;13779;-33.886;151.198;2023-12-20T01:51:40;9.88;;;1.90;;
25990;SDS011;13779;-33.886;151.198;2023-12-20T01:54:11;10.52;;;1.90;;
25990;SDS011;13779;-33.886;151.198;2023-12-20T01:56:42;13.25;;;2.03;;
25990;SDS011;13779;-33.886;151.198;2023-12-20T01:59:13;12.33;;;2.30;;
25990;SDS011;13779;-33.886;151.198;2023-12-20T02:01:43;12.33;;;1.97;;
25990;SDS011;13779;-33.886;151.198;2023-12-20T02:04:13;10.33;;;1.60;;
25990;SDS011;13779;-33.886;151.198;2023-12-20T02:06:44;17.25;;;2.35;;
25990;SDS011;13779;-33.886;151.198;2023-12-20T02:09:16;12.80;;;2.22;;
25990;SDS011;13779;-33.886;151.198;2023-12-20T02:11:47;9.50;;;1.67;;
25990;SDS011;13779;-33.886;151.198;2023-12-20T02:14:18;11.70;;;1.60;;
25990;SDS011;13779;-33.886;151.198;2023-12-20T02:16:48;13.18;;;2.38;;
25990;SDS011;13779;-33.886;151.198;2023-12-20T02:19:19;12.63;;;2.53;;
25990;SDS011;13779;-33.886;151.198;2023-12-20T02:21:55;15.48;;;2.72;;
25990;SDS011;13779;-33.886;151.198;2023-12-20T02:24:41;9.02;;;2.42;;
25990;SDS011;13779;-33.886;151.198;2023-12-20T02:27:14;8.73;;;2.00;;
25990;SDS011;13779;-33.886;151.198;2023-12-20T02:29:47;10.30;;;2.42;;
25990;SDS011;13779;-33.886;151.198;2023-12-20T02:32:21;10.88;;;2.00;;
25990;SDS011;13779;-33.886;151.198;2023-12-20T02:34:56;12.82;;;2.35;;
25990;SDS011;13779;-33.886;151.198;2023-12-20T02:37:26;8.23;;;1.83;;
25990;SDS011;13779;-33.886;151.198;2023-12-20T02:39:57;11.52;;;1.60;;
25990;SDS011;13779;-33.886;151.198;2023-12-20T02:42:27;9.98;;;1.70;;
25990;SDS011;13779;-33.886;151.198;2023-12-20T02:44:57;15.93;;;3.35;;
25990;SDS011;13779;-33.886;151.198;2023-12-20T02:47:27;8.63;;;2.63;;
25990;SDS011;13779;-33.886;151.198;2023-12-20T02:49:58;15.23;;;4.18;;
25990;SDS011;13779;-33.886;151.198;2023-12-20T02:52:29;7.25;;;1.65;;
25990;SDS011;13779;-33.886;151.198;2023-12-20T02:54:59;6.90;;;1.95;;
25990;SDS011;13779;-33.886;151.198;2023-12-20T02:57:29;15.70;;;2.40;;
25990;SDS011;13779;-33.886;151.198;2023-12-20T03:00:02;8.82;;;1.73;;
25990;SDS011;13779;-33.886;151.198;2023-12-20T03:02:32;12.63;;;2.37;;
25990;SDS011;13779;-33.886;151.198;2023-12-20T03:05:02;13.70;;;2.53;;
25990;SDS011;13779;-33.886;151.198;2023-12-20T03:07:33;8.98;;;1.30;;
25990;SDS011;13779;-33.886;151.198;2023-12-20T03:10:04;9.50;;;1.40;;
25990;SDS011;13779;-33.886;151.198;2023-12-20T03:12:41;17.20;;;2.20;;
25990;SDS011;13779;-33.886;151.198;2023-12-20T03:15:11;8.70;;;1.75;;
25990;SDS011;13779;-33.886;151.198;2023-12-20T03:17:41;16.02;;;2.75;;
25990;SDS011;13779;-33.886;151.198;2023-12-20T03:20:12;13.82;;;1.90;;
25990;SDS011;13779;-33.886;151.198;2023-12-20T03:22:42;12.77;;;1.77;;
25990;SDS011;13779;-33.886;151.198;2023-12-20T03:25:12;12.48;;;2.00;;
25990;SDS011;13779;-33.886;151.198;2023-12-20T03:27:43;12.67;;;2.27;;
25990;SDS011;13779;-33.886;151.198;2023-12-20T03:30:13;12.25;;;2.63;;
25990;SDS011;13779;-33.886;151.198;2023-12-20T03:32:44;13.00;;;2.10;;
25990;SDS011;13779;-33.886;151.198;2023-12-20T03:35:14;15.60;;;2.42;;
25990;SDS011;13779;-33.886;151.198;2023-12-20T03:37:44;16.38;;;2.45;;
25990;SDS011;13779;-33.886;151.198;2023-12-20T03:40:15;12.32;;;2.15;;
25990;SDS011;13779;-33.886;151.198;2023-12-20T03:42:45;15.70;;;2.80;;
25990;SDS011;13779;-33.886;151.198;2023-12-20T03:45:15;6.93;;;1.80;;
25990;SDS011;13779;-33.886;151.198;2023-12-20T03:47:47;9.50;;;1.95;;
25990;SDS011;13779;-33.886;151.198;2023-12-20T03:52:51;8.82;;;1.60;;
25990;SDS011;13779;-33.886;151.198;2023-12-20T03:55:21;10.00;;;1.60;;
25990;SDS011;13779;-33.886;151.198;2023-12-20T03:57:52;8.60;;;1.65;;
25990;SDS011;13779;-33.886;151.198;2023-12-20T04:00:22;6.43;;;1.67;;
25990;SDS011;13779;-33.886;151.198;2023-12-20T04:02:54;9.05;;;1.30;;
25990;SDS011;13779;-33.886;151.198;2023-12-20T04:05:25;7.47;;;3.93;;
25990;SDS011;13779;-33.886;151.198;2023-12-20T04:07:59;12.45;;;6.05;;
25990;SDS011;13779;-33.886;151.198;2023-12-20T04:10:31;5.35;;;1.23;;
25990;SDS011;13779;-33.886;151.198;2023-12-20T04:13:01;5.55;;;1.52;;
25990;SDS011;13779;-33.886;151.198;2023-12-20T04:15:32;6.75;;;1.27;;
25990;SDS011;13779;-33.886;151.198;2023-12-20T04:18:03;6.22;;;0.80;;
25990;SDS011;13779;-33.886;151.198;2023-12-20T04:20:33;4.78;;;1.17;;
25990;SDS011;13779;-33.886;151.198;2023-12-20T04:23:04;5.25;;;1.33;;
25990;SDS011;13779;-33.886;151.198;2023-12-20T04:25:34;7.45;;;1.48;;
25990;SDS011;13779;-33.886;151.198;2023-12-20T04:28:05;4.87;;;1.20;;
25990;SDS011;13779;-33.886;151.198;2023-12-20T04:30:35;8.27;;;1.60;;
25990;SDS011;13779;-33.886;151.198;2023-12-20T04:33:05;4.72;;;1.30;;
25990;SDS011;13779;-33.886;151.198;2023-12-20T04:35:35;9.10;;;2.00;;
25990;SDS011;13779;-33.886;151.198;2023-12-20T04:38:06;6.57;;;1.55;;
25990;SDS011;13779;-33.886;151.198;2023-12-20T04:40:36;5.30;;;1.30;;
25990;SDS011;13779;-33.886;151.198;2023-12-20T04:43:07;7.88;;;1.50;;
25990;SDS011;13779;-33.886;151.198;2023-12-20T04:45:38;10.60;;;1.50;;
25990;SDS011;13779;-33.886;151.198;2023-12-20T04:48:08;7.65;;;1.40;;
25990;SDS011;13779;-33.886;151.198;2023-12-20T04:50:38;12.20;;;1.63;;
25990;SDS011;13779;-33.886;151.198;2023-12-20T04:53:09;10.70;;;1.80;;
25990;SDS011;13779;-33.886;151.198;2023-12-20T04:55:39;5.90;;;1.35;;
25990;SDS011;13779;-33.886;151.198;2023-12-20T04:58:09;8.63;;;1.30;;
25990;SDS011;13779;-33.886;151.198;2023-12-20T05:00:40;7.70;;;1.60;;
25990;SDS011;13779;-33.886;151.198;2023-12-20T05:03:10;8.83;;;1.77;;
25990;SDS011;13779;-33.886;151.198;2023-12-20T05:05:44;10.82;;;1.60;;
25990;SDS011;13779;-33.886;151.198;2023-12-20T05:08:14;12.10;;;2.30;;
25990;SDS011;13779;-33.886;151.198;2023-12-20T05:10:45;8.07;;;1.55;;
25990;SDS011;13779;-33.886;151.198;2023-12-20T05:13:15;7.93;;;1.58;;
25990;SDS011;13779;-33.886;151.198;2023-12-20T05:15:45;12.95;;;1.50;;
25990;SDS011;13779;-33.886;151.198;2023-12-20T05:18:15;8.95;;;1.50;;
25990;SDS011;13779;-33.886;151.198;2023-12-20T05:20:47;6.78;;;1.60;;
25990;SDS011;13779;-33.886;151.198;2023-12-20T05:23:21;6.60;;;1.50;;
25990;SDS011;13779;-33.886;151.198;2023-12-20T05:25:51;6.28;;;1.60;;
25990;SDS011;13779;-33.886;151.198;2023-12-20T05:28:22;6.30;;;1.45;;
25990;SDS011;13779;-33.886;151.198;2023-12-20T05:30:53;8.45;;;1.45;;
25990;SDS011;13779;-33.886;151.198;2023-12-20T05:35:53;7.95;;;1.50;;
25990;SDS011;13779;-33.886;151.198;2023-12-20T05:38:24;8.68;;;1.70;;
25990;SDS011;13779;-33.886;151.198;2023-12-20T05:40:55;16.60;;;2.70;;
25990;SDS011;13779;-33.886;151.198;2023-12-20T05:43:25;6.65;;;1.73;;
25990;SDS011;13779;-33.886;151.198;2023-12-20T05:45:56;9.77;;;1.58;;
25990;SDS011;13779;-33.886;151.198;2023-12-20T05:48:26;10.63;;;2.03;;
25990;SDS011;13779;-33.886;151.198;2023-12-20T05:50:57;8.50;;;1.50;;
25990;SDS011;13779;-33.886;151.198;2023-12-20T05:53:28;7.72;;;1.58;;
25990;SDS011;13779;-33.886;151.198;2023-12-20T05:55:58;6.05;;;1.40;;
25990;SDS011;13779;-33.886;151.198;2023-12-20T05:58:29;12.02;;;2.13;;
25990;SDS011;13779;-33.886;151.198;2023-12-20T06:01:00;9.35;;;1.98;;
25990;SDS011;13779;-33.886;151.198;2023-12-20T06:03:33;8.82;;;1.70;;
25990;SDS011;13779;-33.886;151.198;2023-12-20T06:06:07;9.48;;;1.45;;
25990;SDS011;13779;-33.886;151.198;2023-12-20T06:08:40;17.17;;;2.25;;
25990;SDS011;13779;-33.886;151.198;2023-12-20T06:11:12;10.93;;;1.90;;
25990;SDS011;13779;-33.886;151.198;2023-12-20T06:13:45;11.93;;;2.33;;
25990;SDS011;13779;-33.886;151.198;2023-12-20T06:16:16;9.57;;;1.77;;
25990;SDS011;13779;-33.886;151.198;2023-12-20T06:18:47;9.05;;;1.80;;
25990;SDS011;13779;-33.886;151.198;2023-12-20T06:23:49;12.05;;;2.05;;
25990;SDS011;13779;-33.886;151.198;2023-12-20T06:26:19;7.77;;;1.70;;
25990;SDS011;13779;-33.886;151.198;2023-12-20T06:28:50;8.55;;;1.83;;
25990;SDS011;13779;-33.886;151.198;2023-12-20T06:31:24;11.80;;;2.10;;
25990;SDS011;13779;-33.886;151.198;2023-12-20T06:33:54;10.55;;;1.85;;
25990;SDS011;13779;-33.886;151.198;2023-12-20T06:36:26;11.10;;;2.17;;
25990;SDS011;13779;-33.886;151.198;2023-12-20T06:38:56;10.47;;;1.67;;
25990;SDS011;13779;-33.886;151.198;2023-12-20T06:41:27;12.85;;;2.55;;
25990;SDS011;13779;-33.886;151.198;2023-12-20T06:43:58;9.93;;;2.20;;
25990;SDS011;13779;-33.886;151.198;2023-12-20T06:46:31;13.38;;;2.15;;
25990;SDS011;13779;-33.886;151.198;2023-12-20T06:49:05;14.27;;;2.00;;
25990;SDS011;13779;-33.886;151.198;2023-12-20T06:51:39;12.95;;;2.42;;
25990;SDS011;13779;-33.886;151.198;2023-12-20T06:54:09;13.85;;;2.28;;
25990;SDS011;13779;-33.886;151.198;2023-12-20T06:56:39;12.27;;;2.45;;
25990;SDS011;13779;-33.886;151.198;2023-12-20T06:59:10;13.43;;;2.78;;
25990;SDS011;13779;-33.886;151.198;2023-12-20T07:01:40;13.23;;;2.23;;
25990;SDS011;13779;-33.886;151.198;2023-12-20T07:04:10;13.48;;;2.53;;
25990;SDS011;13779;-33.886;151.198;2023-12-20T07:06:41;7.68;;;1.73;;
25990;SDS011;13779;-33.886;151.198;2023-12-20T07:09:12;7.57;;;1.95;;
25990;SDS011;13779;-33.886;151.198;2023-12-20T07:11:46;12.07;;;1.98;;
25990;SDS011;13779;-33.886;151.198;2023-12-20T07:14:17;9.80;;;2.17;;
25990;SDS011;13779;-33.886;151.198;2023-12-20T07:16:47;7.82;;;1.40;;
25990;SDS011;13779;-33.886;151.198;2023-12-20T07:19:27;8.85;;;1.83;;
25990;SDS011;13779;-33.886;151.198;2023-12-20T07:22:13;8.65;;;1.63;;
25990;SDS011;13779;-33.886;151.198;2023-12-20T07:24:50;10.15;;;2.33;;
25990;SDS011;13779;-33.886;151.198;2023-12-20T07:27:23;9.88;;;1.80;;
25990;SDS011;13779;-33.886;151.198;2023-12-20T07:29:54;6.70;;;1.92;;
25990;SDS011;13779;-33.886;151.198;2023-12-20T07:32:27;10.45;;;1.98;;
25990;SDS011;13779;-33.886;151.198;2023-12-20T07:35:08;9.65;;;2.58;;
25990;SDS011;13779;-33.886;151.198;2023-12-20T07:37:39;9.23;;;1.80;;
25990;SDS011;13779;-33.886;151.198;2023-12-20T07:40:14;14.50;;;2.30;;
25990;SDS011;13779;-33.886;151.198;2023-12-20T07:42:45;14.93;;;2.10;;
25990;SDS011;13779;-33.886;151.198;2023-12-20T07:45:22;11.13;;;2.05;;
25990;SDS011;13779;-33.886;151.198;2023-12-20T07:47:52;15.50;;;2.63;;
25990;SDS011;13779;-33.886;151.198;2023-12-20T07:50:31;10.02;;;2.28;;
25990;SDS011;13779;-33.886;151.198;2023-12-20T07:53:04;11.05;;;2.13;;
25990;SDS011;13779;-33.886;151.198;2023-12-20T07:55:34;10.40;;;2.25;;
25990;SDS011;13779;-33.886;151.198;2023-12-20T07:58:13;6.28;;;1.98;;
25990;SDS011;13779;-33.886;151.198;2023-12-20T08:00:43;11.15;;;2.13;;
25990;SDS011;13779;-33.886;151.198;2023-12-20T08:03:14;10.68;;;2.08;;
25990;SDS011;13779;-33.886;151.198;2023-12-20T08:05:44;13.70;;;2.63;;
25990;SDS011;13779;-33.886;151.198;2023-12-20T08:08:15;13.02;;;2.75;;
25990;SDS011;13779;-33.886;151.198;2023-12-20T08:10:45;13.98;;;1.98;;
25990;SDS011;13779;-33.886;151.198;2023-12-20T08:13:15;16.48;;;2.35;;
25990;SDS011;13779;-33.886;151.198;2023-12-20T08:15:57;13.65;;;2.60;;
25990;SDS011;13779;-33.886;151.198;2023-12-20T08:18:29;9.35;;;2.22;;
25990;SDS011;13779;-33.886;151.198;2023-12-20T08:21:06;10.85;;;1.95;;
25990;SDS011;13779;-33.886;151.198;2023-12-20T08:26:08;12.80;;;2.25;;
25990;SDS011;13779;-33.886;151.198;2023-12-20T08:28:40;9.02;;;2.50;;
25990;SDS011;13779;-33.886;151.198;2023-12-20T08:31:13;11.07;;;2.63;;
25990;SDS011;13779;-33.886;151.198;2023-12-20T08:33:56;8.00;;;2.63;;
25990;SDS011;13779;-33.886;151.198;2023-12-20T08:36:27;8.48;;;1.75;;
25990;SDS011;13779;-33.886;151.198;2023-12-20T08:38:57;9.05;;;1.80;;
25990;SDS011;13779;-33.886;151.198;2023-12-20T08:41:29;12.45;;;2.47;;
25990;SDS011;13779;-33.886;151.198;2023-12-20T08:43:59;7.18;;;1.88;;
25990;SDS011;13779;-33.886;151.198;2023-12-20T08:46:29;7.80;;;1.95;;
25990;SDS011;13779;-33.886;151.198;2023-12-20T08:48:59;8.93;;;2.55;;
25990;SDS011;13779;-33.886;151.198;2023-12-20T08:51:33;13.52;;;2.42;;
25990;SDS011;13779;-33.886;151.198;2023-12-20T08:54:04;9.80;;;2.67;;
25990;SDS011;13779;-33.886;151.198;2023-12-20T08:56:36;9.68;;;2.50;;
25990;SDS011;13779;-33.886;151.198;2023-12-20T08:59:10;20.40;;;10.00;;
25990;SDS011;13779;-33.886;151.198;2023-12-20T09:01:40;35.47;;;19.27;;
25990;SDS011;13779;-33.886;151.198;2023-12-20T09:04:11;17.47;;;5.90;;
25990;SDS011;13779;-33.886;151.198;2023-12-20T09:06:44;15.43;;;3.08;;
25990;SDS011;13779;-33.886;151.198;2023-12-20T09:09:14;13.70;;;4.00;;
25990;SDS011;13779;-33.886;151.198;2023-12-20T09:11:51;12.32;;;2.45;;
25990;SDS011;13779;-33.886;151.198;2023-12-20T09:14:21;14.60;;;2.72;;
25990;SDS011;13779;-33.886;151.198;2023-12-20T09:16:52;9.85;;;2.83;;
25990;SDS011;13779;-33.886;151.198;2023-12-20T09:19:27;11.73;;;2.58;;
25990;SDS011;13779;-33.886;151.198;2023-12-20T09:21:58;11.35;;;2.28;;
25990;SDS011;13779;-33.886;151.198;2023-12-20T09:24:32;13.02;;;2.72;;
25990;SDS011;13779;-33.886;151.198;2023-12-20T09:27:03;8.13;;;2.53;;
25990;SDS011;13779;-33.886;151.198;2023-12-20T09:29:34;16.02;;;2.65;;
25990;SDS011;13779;-33.886;151.198;2023-12-20T09:32:04;11.45;;;3.22;;
25990;SDS011;13779;-33.886;151.198;2023-12-20T09:34:34;10.77;;;2.83;;
25990;SDS011;13779;-33.886;151.198;2023-12-20T09:37:05;7.90;;;2.88;;
25990;SDS011;13779;-33.886;151.198;2023-12-20T09:39:36;9.88;;;2.78;;
25990;SDS011;13779;-33.886;151.198;2023-12-20T09:42:08;10.82;;;2.58;;
25990;SDS011;13779;-33.886;151.198;2023-12-20T09:44:43;12.45;;;3.47;;
25990;SDS011;13779;-33.886;151.198;2023-12-20T09:47:13;11.60;;;2.53;;
25990;SDS011;13779;-33.886;151.198;2023-12-20T09:49:47;15.90;;;2.78;;
25990;SDS011;13779;-33.886;151.198;2023-12-20T09:52:18;12.88;;;2.47;;
25990;SDS011;13779;-33.886;151.198;2023-12-20T09:54:49;13.30;;;2.75;;
25990;SDS011;13779;-33.886;151.198;2023-12-20T09:57:21;8.20;;;2.00;;
25990;SDS011;13779;-33.886;151.198;2023-12-20T09:59:52;11.57;;;2.53;;
25990;SDS011;13779;-33.886;151.198;2023-12-20T10:02:23;11.02;;;2.40;;
25990;SDS011;13779;-33.886;151.198;2023-12-20T10:04:58;14.55;;;2.40;;
25990;SDS011;13779;-33.886;151.198;2023-12-20T10:09:59;12.88;;;2.30;;
25990;SDS011;13779;-33.886;151.198;2023-12-20T10:15:00;11.60;;;2.20;;
25990;SDS011;13779;-33.886;151.198;2023-12-20T10:17:30;9.27;;;2.03;;
25990;SDS011;13779;-33.886;151.198;2023-12-20T10:20:02;19.40;;;2.85;;
25990;SDS011;13779;-33.886;151.198;2023-12-20T10:22:38;13.48;;;2.80;;
25990;SDS011;13779;-33.886;151.198;2023-12-20T10:25:08;19.87;;;7.93;;
25990;SDS011;13779;-33.886;151.198;2023-12-20T10:27:38;11.77;;;3.85;;
25990;SDS011;13779;-33.886;151.198;2023-12-20T10:30:09;13.20;;;2.67;;
25990;SDS011;13779;-33.886;151.198;2023-12-20T10:32:39;11.75;;;2.30;;
25990;SDS011;13779;-33.886;151.198;2023-12-20T10:35:10;9.50;;;2.33;;
25990;SDS011;13779;-33.886;151.198;2023-12-20T10:37:40;11.75;;;2.22;;
25990;SDS011;13779;-33.886;151.198;2023-12-20T10:40:11;10.10;;;1.73;;
25990;SDS011;13779;-33.886;151.198;2023-12-20T10:42:42;16.90;;;2.47;;
25990;SDS011;13779;-33.886;151.198;2023-12-20T10:45:13;6.68;;;2.22;;
25990;SDS011;13779;-33.886;151.198;2023-12-20T10:47:46;16.52;;;2.90;;
25990;SDS011;13779;-33.886;151.198;2023-12-20T10:50:19;6.65;;;2.30;;
25990;SDS011;13779;-33.886;151.198;2023-12-20T10:52:49;8.40;;;1.88;;
25990;SDS011;13779;-33.886;151.198;2023-12-20T10:55:24;8.70;;;2.67;;
25990;SDS011;13779;-33.886;151.198;2023-12-20T10:58:00;9.77;;;2.25;;
25990;SDS011;13779;-33.886;151.198;2023-12-20T11:00:31;10.02;;;2.72;;
25990;SDS011;13779;-33.886;151.198;2023-12-20T11:03:01;10.93;;;3.10;;
25990;SDS011;13779;-33.886;151.198;2023-12-20T11:05:42;11.67;;;2.10;;
25990;SDS011;13779;-33.886;151.198;2023-12-20T11:08:38;13.43;;;2.38;;
25990;SDS011;13779;-33.886;151.198;2023-12-20T11:14:47;11.00;;;1.98;;
25990;SDS011;13779;-33.886;151.198;2023-12-20T11:17:24;6.32;;;1.63;;
25990;SDS011;13779;-33.886;151.198;2023-12-20T11:22:30;9.75;;;2.72;;
25990;SDS011;13779;-33.886;151.198;2023-12-20T11:25:07;6.57;;;2.00;;
25990;SDS011;13779;-33.886;151.198;2023-12-20T11:27:42;6.30;;;1.80;;
25990;SDS011;13779;-33.886;151.198;2023-12-20T11:30:20;8.13;;;2.40;;
25990;SDS011;13779;-33.886;151.198;2023-12-20T11:35:21;6.75;;;1.70;;
25990;SDS011;13779;-33.886;151.198;2023-12-20T11:37:53;8.00;;;2.00;;
25990;SDS011;13779;-33.886;151.198;2023-12-20T11:40:23;9.77;;;2.45;;
25990;SDS011;13779;-33.886;151.198;2023-12-20T11:42:54;9.40;;;1.63;;
25990;SDS011;13779;-33.886;151.198;2023-12-20T11:45:25;10.35;;;2.53;;
25990;SDS011;13779;-33.886;151.198;2023-12-20T11:47:57;9.65;;;2.58;;
25990;SDS011;13779;-33.886;151.198;2023-12-20T11:50:28;8.38;;;2.45;;
25990;SDS011;13779;-33.886;151.198;2023-12-20T11:52:59;7.82;;;2.03;;
25990;SDS011;13779;-33.886;151.198;2023-12-20T11:55:30;5.30;;;1.90;;
25990;SDS011;13779;-33.886;151.198;2023-12-20T11:58:01;6.88;;;1.45;;
25990;SDS011;13779;-33.886;151.198;2023-12-20T12:00:33;7.07;;;1.70;;
25990;SDS011;13779;-33.886;151.198;2023-12-20T12:03:04;5.53;;;2.15;;
25990;SDS011;13779;-33.886;151.198;2023-12-20T12:05:35;9.95;;;3.03;;
25990;SDS011;13779;-33.886;151.198;2023-12-20T12:08:05;6.60;;;1.85;;
25990;SDS011;13779;-33.886;151.198;2023-12-20T12:10:37;7.63;;;1.70;;
25990;SDS011;13779;-33.886;151.198;2023-12-20T12:13:08;10.70;;;1.70;;
25990;SDS011;13779;-33.886;151.198;2023-12-20T12:15:40;6.88;;;1.77;;
25990;SDS011;13779;-33.886;151.198;2023-12-20T12:18:14;4.38;;;1.42;;
25990;SDS011;13779;-33.886;151.198;2023-12-20T12:20:45;8.10;;;2.20;;
25990;SDS011;13779;-33.886;151.198;2023-12-20T12:23:22;8.13;;;2.60;;
25990;SDS011;13779;-33.886;151.198;2023-12-20T12:25:53;8.77;;;1.70;;
25990;SDS011;13779;-33.886;151.198;2023-12-20T12:28:28;5.43;;;1.50;;
25990;SDS011;13779;-33.886;151.198;2023-12-20T12:31:00;6.07;;;1.70;;
25990;SDS011;13779;-33.886;151.198;2023-12-20T12:33:31;4.85;;;1.58;;
25990;SDS011;13779;-33.886;151.198;2023-12-20T12:36:01;4.45;;;1.23;;
25990;SDS011;13779;-33.886;151.198;2023-12-20T12:41:02;6.55;;;1.80;;
25990;SDS011;13779;-33.886;151.198;2023-12-20T12:46:03;4.38;;;1.50;;
25990;SDS011;13779;-33.886;151.198;2023-12-20T12:48:34;6.03;;;1.40;;
25990;SDS011;13779;-33.886;151.198;2023-12-20T12:51:04;4.47;;;1.20;;
25990;SDS011;13779;-33.886;151.198;2023-12-20T12:56:06;6.55;;;1.55;;
25990;SDS011;13779;-33.886;151.198;2023-12-20T12:58:36;5.00;;;1.67;;
25990;SDS011;13779;-33.886;151.198;2023-12-20T13:01:06;5.20;;;1.15;;
25990;SDS011;13779;-33.886;151.198;2023-12-20T13:03:37;6.07;;;1.20;;
25990;SDS011;13779;-33.886;151.198;2023-12-20T13:06:07;4.95;;;1.20;;
25990;SDS011;13779;-33.886;151.198;2023-12-20T13:08:37;3.20;;;1.10;;
25990;SDS011;13779;-33.886;151.198;2023-12-20T13:11:08;5.33;;;1.30;;
25990;SDS011;13779;-33.886;151.198;2023-12-20T13:16:09;5.80;;;1.17;;
25990;SDS011;13779;-33.886;151.198;2023-12-20T13:18:39;2.20;;;1.00;;
25990;SDS011;13779;-33.886;151.198;2023-12-20T13:21:11;3.58;;;1.38;;
25990;SDS011;13779;-33.886;151.198;2023-12-20T13:23:42;2.95;;;1.00;;
25990;SDS011;13779;-33.886;151.198;2023-12-20T13:26:12;4.15;;;1.25;;
25990;SDS011;13779;-33.886;151.198;2023-12-20T13:28:43;6.82;;;0.98;;
25990;SDS011;13779;-33.886;151.198;2023-12-20T13:31:13;5.40;;;1.27;;
25990;SDS011;13779;-33.886;151.198;2023-12-20T13:33:43;3.63;;;1.05;;
25990;SDS011;13779;-33.886;151.198;2023-12-20T13:36:14;4.57;;;1.45;;
25990;SDS011;13779;-33.886;151.198;2023-12-20T13:38:44;3.83;;;1.20;;
25990;SDS011;13779;-33.886;151.198;2023-12-20T13:41:14;3.28;;;1.35;;
25990;SDS011;13779;-33.886;151.198;2023-12-20T13:43:45;7.70;;;1.33;;
25990;SDS011;13779;-33.886;151.198;2023-12-20T13:46:15;3.90;;;1.20;;
25990;SDS011;13779;-33.886;151.198;2023-12-20T13:48:45;4.37;;;1.10;;
25990;SDS011;13779;-33.886;151.198;2023-12-20T13:51:16;4.30;;;0.93;;
25990;SDS011;13779;-33.886;151.198;2023-12-20T13:53:48;3.65;;;1.55;;
25990;SDS011;13779;-33.886;151.198;2023-12-20T13:56:18;5.82;;;2.10;;
25990;SDS011;13779;-33.886;151.198;2023-12-20T13:58:49;3.22;;;0.80;;
25990;SDS011;13779;-33.886;151.198;2023-12-20T14:01:20;1.98;;;0.98;;
25990;SDS011;13779;-33.886;151.198;2023-12-20T14:03:50;3.20;;;1.20;;
25990;SDS011;13779;-33.886;151.198;2023-12-20T14:06:20;7.55;;;1.30;;
25990;SDS011;13779;-33.886;151.198;2023-12-20T14:08:50;2.45;;;1.10;;
25990;SDS011;13779;-33.886;151.198;2023-12-20T14:11:21;5.97;;;1.33;;
25990;SDS011;13779;-33.886;151.198;2023-12-20T14:13:51;2.03;;;0.95;;
25990;SDS011;13779;-33.886;151.198;2023-12-20T14:16:26;2.40;;;1.10;;
25990;SDS011;13779;-33.886;151.198;2023-12-20T14:18:57;3.25;;;0.88;;
25990;SDS011;13779;-33.886;151.198;2023-12-20T14:21:27;4.18;;;1.45;;
25990;SDS011;13779;-33.886;151.198;2023-12-20T14:23:58;3.17;;;0.93;;
25990;SDS011;13779;-33.886;151.198;2023-12-20T14:26:28;3.00;;;1.23;;
25990;SDS011;13779;-33.886;151.198;2023-12-20T14:28:59;1.45;;;0.70;;
25990;SDS011;13779;-33.886;151.198;2023-12-20T14:31:30;2.38;;;0.93;;
25990;SDS011;13779;-33.886;151.198;2023-12-20T14:34:00;5.07;;;0.90;;
25990;SDS011;13779;-33.886;151.198;2023-12-20T14:36:32;3.75;;;0.80;;
25990;SDS011;13779;-33.886;151.198;2023-12-20T14:39:03;7.00;;;0.82;;
25990;SDS011;13779;-33.886;151.198;2023-12-20T14:41:34;2.85;;;0.98;;
25990;SDS011;13779;-33.886;151.198;2023-12-20T14:44:04;3.38;;;0.70;;
25990;SDS011;13779;-33.886;151.198;2023-12-20T14:49:07;2.35;;;0.90;;
25990;SDS011;13779;-33.886;151.198;2023-12-20T14:51:38;2.55;;;0.63;;
25990;SDS011;13779;-33.886;151.198;2023-12-20T14:54:08;3.95;;;0.90;;
25990;SDS011;13779;-33.886;151.198;2023-12-20T14:56:38;1.83;;;0.80;;
25990;SDS011;13779;-33.886;151.198;2023-12-20T14:59:09;3.43;;;0.83;;
25990;SDS011;13779;-33.886;151.198;2023-12-20T15:01:39;1.70;;;1.00;;
25990;SDS011;13779;-33.886;151.198;2023-12-20T15:04:10;3.30;;;1.00;;
25990;SDS011;13779;-33.886;151.198;2023-12-20T15:06:41;2.65;;;0.98;;
25990;SDS011;13779;-33.886;151.198;2023-12-20T15:09:12;1.77;;;0.85;;
25990;SDS011;13779;-33.886;151.198;2023-12-20T15:11:42;2.58;;;0.82;;
25990;SDS011;13779;-33.886;151.198;2023-12-20T15:14:12;1.98;;;0.70;;
25990;SDS011;13779;-33.886;151.198;2023-12-20T15:16:48;0.98;;;0.50;;